createdAt,value
2023-02-25T00:00:52.134Z,4.30
2023-02-25T00:02:03.400Z,4.20
2023-02-25T00:02:52.167Z,4.40
2023-02-25T00:03:52.061Z,4.10
2023-02-25T00:04:52.047Z,4.40
2023-02-25T00:05:52.058Z,4.40
2023-02-25T00:06:52.016Z,4.40
2023-02-25T00:07:51.985Z,3.90
2023-02-25T00:08:51.994Z,4.20
2023-02-25T00:09:51.994Z,4.40
2023-02-25T00:10:52.001Z,4.40
2023-02-25T00:11:52.008Z,4.40
2023-02-25T00:12:52.001Z,4.80
2023-02-25T00:13:51.925Z,4.60
2023-02-25T00:14:51.916Z,4.20
2023-02-25T00:15:52.009Z,4.30
2023-02-25T00:16:51.945Z,4.10
2023-02-25T00:17:51.884Z,4.00
2023-02-25T00:18:51.908Z,4.00
2023-02-25T00:19:51.857Z,4.20
2023-02-25T00:20:51.876Z,4.00
2023-02-25T00:21:51.899Z,4.40
2023-02-25T00:22:51.862Z,4.90
2023-02-25T00:23:51.855Z,4.60
2023-02-25T00:24:51.819Z,4.90
2023-02-25T00:25:51.849Z,4.30
2023-02-25T00:26:51.822Z,4.50
2023-02-25T00:27:51.837Z,3.90
2023-02-25T00:28:51.799Z,4.20
2023-02-25T00:29:51.807Z,4.50
2023-02-25T00:30:51.857Z,4.10
2023-02-25T00:31:51.923Z,4.30
2023-02-25T00:32:51.778Z,4.30
2023-02-25T00:33:51.732Z,4.00
2023-02-25T00:34:51.674Z,4.00
2023-02-25T00:35:51.694Z,4.00
2023-02-25T00:36:51.713Z,4.20
2023-02-25T00:37:51.646Z,4.70
2023-02-25T00:38:51.640Z,4.20
2023-02-25T00:39:51.674Z,4.10
2023-02-25T00:40:51.634Z,4.00
2023-02-25T00:41:51.604Z,4.00
2023-02-25T00:42:51.598Z,4.80
2023-02-25T00:43:51.671Z,4.40
2023-02-25T00:44:51.569Z,4.20
2023-02-25T00:45:51.581Z,4.30
2023-02-25T00:46:51.636Z,4.30
2023-02-25T00:47:51.542Z,4.40
2023-02-25T00:48:51.525Z,4.90
2023-02-25T00:49:51.514Z,4.60
2023-02-25T00:50:51.593Z,4.00
2023-02-25T00:51:51.485Z,4.60
2023-02-25T00:52:51.484Z,4.40
2023-02-25T00:53:51.479Z,4.20
2023-02-25T00:54:51.473Z,4.10
2023-02-25T00:55:51.469Z,4.10
2023-02-25T00:56:51.444Z,4.60
2023-02-25T00:57:51.464Z,4.80
2023-02-25T00:58:51.424Z,4.60
2023-02-25T00:59:51.395Z,4.60
2023-02-25T01:00:52.202Z,4.00
2023-02-25T01:01:51.409Z,4.50
2023-02-25T01:02:51.433Z,3.90
2023-02-25T01:03:51.362Z,4.50
2023-02-25T01:04:51.341Z,3.80
2023-02-25T01:05:51.358Z,3.70
2023-02-25T01:06:51.340Z,4.50
2023-02-25T01:07:51.314Z,4.20
2023-02-25T01:08:51.357Z,4.10
2023-02-25T01:09:51.284Z,3.60
2023-02-25T01:10:51.305Z,3.80
2023-02-25T01:11:51.269Z,4.10
2023-02-25T01:12:51.266Z,3.80
2023-02-25T01:13:51.313Z,3.70
2023-02-25T01:14:51.248Z,4.00
2023-02-25T01:15:51.270Z,4.00
2023-02-25T01:16:51.220Z,3.80
2023-02-25T01:17:51.201Z,3.90
2023-02-25T01:18:51.203Z,4.40
2023-02-25T01:19:51.183Z,4.20
2023-02-25T01:20:51.200Z,4.10
2023-02-25T01:21:51.168Z,4.40
2023-02-25T01:22:51.144Z,4.40
2023-02-25T01:23:51.123Z,4.30
2023-02-25T01:24:51.117Z,3.60
2023-02-25T01:25:51.161Z,3.90
2023-02-25T01:26:51.109Z,3.90
2023-02-25T01:27:51.097Z,3.60
2023-02-25T01:28:51.076Z,3.50
2023-02-25T01:29:51.068Z,3.90
2023-02-25T01:30:51.239Z,3.60
2023-02-25T01:31:51.229Z,4.20
2023-02-25T01:32:51.145Z,4.10
2023-02-25T01:33:51.015Z,4.00
2023-02-25T01:34:51.005Z,4.40
2023-02-25T01:35:51.020Z,3.40
2023-02-25T01:36:50.989Z,4.40
2023-02-25T01:37:51.009Z,4.30
2023-02-25T01:38:50.973Z,3.30
2023-02-25T01:39:50.948Z,3.50
2023-02-25T01:40:50.965Z,3.70
2023-02-25T01:41:50.979Z,3.70
2023-02-25T01:42:50.933Z,4.10
2023-02-25T01:43:50.906Z,3.90
2023-02-25T01:44:50.906Z,4.10
2023-02-25T01:45:50.926Z,3.80
2023-02-25T01:46:50.991Z,4.10
2023-02-25T01:47:50.864Z,4.00
2023-02-25T01:48:50.848Z,4.40
2023-02-25T01:49:50.914Z,3.70
2023-02-25T01:50:50.865Z,4.00
2023-02-25T01:51:50.839Z,3.70
2023-02-25T01:52:50.809Z,4.30
2023-02-25T01:53:50.792Z,4.00
2023-02-25T01:54:50.796Z,4.10
2023-02-25T01:55:50.801Z,4.50
2023-02-25T01:56:50.764Z,4.10
2023-02-25T01:57:50.755Z,3.80
2023-02-25T01:58:50.765Z,4.40
2023-02-25T01:59:50.726Z,4.00
2023-02-25T02:00:50.807Z,4.40
2023-02-25T02:01:50.729Z,4.30
2023-02-25T02:02:50.791Z,3.80
2023-02-25T02:03:50.677Z,4.00
2023-02-25T02:04:50.689Z,4.30
2023-02-25T02:05:50.690Z,4.30
2023-02-25T02:06:50.672Z,4.40
2023-02-25T02:07:50.643Z,4.20
2023-02-25T02:08:50.629Z,4.10
2023-02-25T02:09:50.629Z,3.90
2023-02-25T02:10:50.639Z,3.80
2023-02-25T02:11:50.607Z,4.40
2023-02-25T02:12:50.591Z,4.00
2023-02-25T02:13:50.581Z,4.20
2023-02-25T02:14:50.574Z,4.30
2023-02-25T02:15:50.606Z,4.70
2023-02-25T02:16:50.546Z,3.50
2023-02-25T02:17:50.535Z,4.10
2023-02-25T02:18:50.523Z,3.40
2023-02-25T02:19:50.547Z,4.50
2023-02-25T02:20:50.529Z,4.10
2023-02-25T02:21:50.504Z,4.50
2023-02-25T02:22:50.490Z,4.50
2023-02-25T02:23:50.469Z,4.00
2023-02-25T02:24:50.476Z,4.40
2023-02-25T02:25:50.473Z,4.60
2023-02-25T02:26:50.470Z,4.40
2023-02-25T02:27:50.419Z,4.50
2023-02-25T02:28:50.404Z,4.40
2023-02-25T02:29:50.396Z,4.90
2023-02-25T02:30:50.452Z,4.10
2023-02-25T02:31:50.583Z,4.10
2023-02-25T02:32:50.366Z,3.90
2023-02-25T02:33:50.345Z,4.30
2023-02-25T02:34:50.343Z,4.50
2023-02-25T02:35:50.348Z,4.90
2023-02-25T02:36:50.316Z,4.50
2023-02-25T02:37:50.301Z,4.20
2023-02-25T02:38:50.301Z,4.50
2023-02-25T02:39:50.280Z,4.30
2023-02-25T02:40:50.292Z,4.20
2023-02-25T02:41:50.257Z,4.40
2023-02-25T02:42:50.245Z,4.30
2023-02-25T02:43:50.239Z,4.20
2023-02-25T02:44:50.226Z,4.60
2023-02-25T02:45:50.351Z,4.80
2023-02-25T02:46:50.207Z,4.60
2023-02-25T02:47:50.182Z,5.20
2023-02-25T02:48:50.186Z,3.90
2023-02-25T02:49:50.188Z,4.60
2023-02-25T02:50:50.180Z,4.40
2023-02-25T02:51:50.141Z,4.20
2023-02-25T02:52:50.132Z,4.10
2023-02-25T02:53:50.114Z,4.50
2023-02-25T02:54:50.109Z,4.70
2023-02-25T02:55:50.124Z,4.70
2023-02-25T02:56:50.085Z,4.60
2023-02-25T02:57:50.072Z,4.60
2023-02-25T02:58:50.065Z,4.40
2023-02-25T02:59:50.054Z,4.80
2023-02-25T03:00:50.098Z,5.30
2023-02-25T03:01:50.028Z,4.50
2023-02-25T03:02:50.023Z,4.20
2023-02-25T03:03:50.028Z,4.60
2023-02-25T03:04:50.005Z,4.20
2023-02-25T03:05:50.003Z,4.40
2023-02-25T03:06:49.978Z,4.60
2023-02-25T03:07:49.956Z,4.50
2023-02-25T03:08:49.970Z,5.20
2023-02-25T03:09:49.934Z,4.40
2023-02-25T03:10:49.958Z,4.00
2023-02-25T03:11:49.917Z,4.40
2023-02-25T03:12:49.915Z,4.70
2023-02-25T03:13:49.891Z,4.50
2023-02-25T03:14:49.884Z,4.40
2023-02-25T03:15:49.893Z,4.30
2023-02-25T03:16:49.995Z,4.50
2023-02-25T03:17:49.846Z,4.10
2023-02-25T03:18:49.855Z,4.80
2023-02-25T03:19:49.829Z,4.60
2023-02-25T03:20:49.844Z,4.30
2023-02-25T03:21:49.817Z,4.90
2023-02-25T03:22:49.817Z,4.40
2023-02-25T03:23:49.797Z,4.50
2023-02-25T03:24:49.833Z,4.20
2023-02-25T03:25:49.779Z,4.90
2023-02-25T03:26:49.781Z,4.60
2023-02-25T03:27:49.749Z,5.20
2023-02-25T03:28:49.734Z,4.00
2023-02-25T03:29:49.729Z,5.10
2023-02-25T03:30:49.791Z,4.60
2023-02-25T03:31:49.831Z,4.10
2023-02-25T03:32:49.791Z,3.90
2023-02-25T03:33:49.673Z,4.50
2023-02-25T03:34:49.690Z,4.70
2023-02-25T03:35:49.704Z,4.80
2023-02-25T03:36:49.654Z,4.60
2023-02-25T03:37:49.630Z,4.00
2023-02-25T03:38:49.649Z,5.10
2023-02-25T03:39:49.611Z,4.50
2023-02-25T03:40:49.646Z,4.20
2023-02-25T03:41:49.584Z,4.00
2023-02-25T03:42:49.580Z,4.40
2023-02-25T03:43:49.566Z,4.00
2023-02-25T03:44:49.571Z,4.40
2023-02-25T03:45:49.649Z,4.50
2023-02-25T03:46:49.535Z,4.20
2023-02-25T03:47:49.515Z,4.10
2023-02-25T03:48:49.513Z,3.80
2023-02-25T03:49:49.509Z,4.20
2023-02-25T03:50:49.529Z,3.60
2023-02-25T03:51:49.476Z,3.90
2023-02-25T03:52:49.465Z,3.80
2023-02-25T03:53:49.451Z,4.00
2023-02-25T03:54:49.446Z,4.20
2023-02-25T03:55:49.449Z,4.50
2023-02-25T03:56:49.423Z,3.80
2023-02-25T03:57:49.408Z,4.00
2023-02-25T03:58:49.405Z,4.40
2023-02-25T03:59:49.393Z,4.60
2023-02-25T04:00:49.418Z,4.20
2023-02-25T04:01:49.360Z,4.00
2023-02-25T04:02:49.440Z,3.70
2023-02-25T04:03:49.328Z,4.50
2023-02-25T04:04:49.373Z,4.40
2023-02-25T04:05:49.312Z,4.70
2023-02-25T04:06:49.325Z,4.20
2023-02-25T04:07:49.293Z,4.20
2023-02-25T04:08:49.278Z,4.70
2023-02-25T04:09:49.265Z,4.60
2023-02-25T04:10:49.253Z,4.60
2023-02-25T04:11:49.246Z,3.90
2023-02-25T04:12:49.276Z,4.60
2023-02-25T04:13:49.242Z,5.10
2023-02-25T04:14:49.217Z,4.50
2023-02-25T04:15:49.336Z,4.50
2023-02-25T04:16:49.191Z,4.90
2023-02-25T04:17:49.173Z,4.60
2023-02-25T04:18:49.207Z,4.80
2023-02-25T04:19:49.163Z,4.70
2023-02-25T04:20:49.204Z,4.60
2023-02-25T04:21:49.148Z,5.40
2023-02-25T04:22:49.126Z,4.90
2023-02-25T04:23:49.105Z,4.80
2023-02-25T04:24:49.317Z,5.50
2023-02-25T04:25:49.108Z,5.20
2023-02-25T04:26:49.074Z,4.90
2023-02-25T04:27:49.058Z,4.90
2023-02-25T04:28:49.056Z,4.70
2023-02-25T04:29:49.040Z,5.10
2023-02-25T04:30:49.223Z,5.10
2023-02-25T04:31:49.167Z,4.90
2023-02-25T04:32:49.065Z,5.30
2023-02-25T04:33:48.995Z,4.50
2023-02-25T04:34:49.005Z,4.80
2023-02-25T04:35:48.969Z,5.10
2023-02-25T04:36:48.992Z,5.30
2023-02-25T04:37:48.972Z,4.60
2023-02-25T04:38:48.951Z,4.70
2023-02-25T04:39:48.936Z,5.40
2023-02-25T04:40:48.921Z,5.30
2023-02-25T04:41:48.924Z,5.00
2023-02-25T04:42:48.966Z,5.30
2023-02-25T04:43:48.883Z,5.20
2023-02-25T04:44:48.870Z,5.40
2023-02-25T04:45:48.863Z,4.60
2023-02-25T04:46:48.915Z,4.70
2023-02-25T04:47:48.841Z,5.10
2023-02-25T04:48:48.871Z,4.90
2023-02-25T04:49:48.813Z,5.20
2023-02-25T04:50:48.807Z,4.80
2023-02-25T04:51:48.807Z,4.80
2023-02-25T04:52:48.815Z,4.80
2023-02-25T04:53:48.793Z,5.00
2023-02-25T04:54:48.805Z,5.50
2023-02-25T04:55:48.748Z,5.30
2023-02-25T04:56:48.740Z,4.70
2023-02-25T04:57:48.728Z,4.60
2023-02-25T04:58:48.754Z,5.20
2023-02-25T04:59:48.711Z,5.00
2023-02-25T05:00:48.751Z,4.40
2023-02-25T05:01:48.761Z,4.80
2023-02-25T05:02:48.699Z,4.80
2023-02-25T05:03:48.675Z,5.00
2023-02-25T05:04:48.691Z,4.70
2023-02-25T05:05:48.644Z,4.80
2023-02-25T05:06:48.678Z,4.50
2023-02-25T05:07:48.643Z,4.50
2023-02-25T05:08:48.601Z,5.30
2023-02-25T05:09:48.603Z,4.70
2023-02-25T05:10:48.607Z,4.70
2023-02-25T05:11:48.589Z,5.00
2023-02-25T05:12:48.585Z,4.90
2023-02-25T05:13:48.564Z,4.80
2023-02-25T05:14:48.533Z,5.50
2023-02-25T05:15:48.653Z,4.40
2023-02-25T05:16:48.523Z,4.80
2023-02-25T05:17:48.510Z,5.00
2023-02-25T05:18:48.541Z,5.40
2023-02-25T05:19:48.528Z,4.80
2023-02-25T05:20:48.531Z,5.00
2023-02-25T05:21:48.475Z,5.00
2023-02-25T05:22:48.448Z,5.00
2023-02-25T05:23:48.440Z,5.00
2023-02-25T05:24:48.462Z,4.60
2023-02-25T05:25:48.426Z,4.40
2023-02-25T05:26:48.415Z,4.80
2023-02-25T05:27:48.418Z,4.90
2023-02-25T05:28:48.391Z,4.10
2023-02-25T05:29:48.502Z,4.40
2023-02-25T05:30:48.405Z,4.50
2023-02-25T05:31:48.537Z,4.60
2023-02-25T05:32:48.485Z,4.90
2023-02-25T05:33:48.348Z,4.80
2023-02-25T05:34:48.318Z,5.40
2023-02-25T05:35:48.349Z,4.50
2023-02-25T05:36:48.294Z,4.80
2023-02-25T05:37:48.295Z,5.30
2023-02-25T05:38:48.269Z,4.60
2023-02-25T05:39:48.267Z,4.90
2023-02-25T05:40:48.249Z,4.40
2023-02-25T05:41:48.262Z,3.90
2023-02-25T05:42:48.231Z,4.60
2023-02-25T05:43:48.231Z,5.00
2023-02-25T05:44:48.204Z,4.40
2023-02-25T05:45:48.213Z,4.60
2023-02-25T05:46:48.232Z,4.90
2023-02-25T05:47:48.194Z,4.00
2023-02-25T05:48:48.178Z,4.40
2023-02-25T05:49:48.160Z,4.70
2023-02-25T05:50:48.141Z,5.00
2023-02-25T05:51:48.142Z,4.70
2023-02-25T05:52:48.113Z,4.70
2023-02-25T05:53:48.193Z,4.80
2023-02-25T05:54:48.101Z,5.20
2023-02-25T05:55:48.103Z,5.60
2023-02-25T05:56:48.061Z,4.70
2023-02-25T05:57:48.056Z,4.70
2023-02-25T05:58:48.041Z,4.50
2023-02-25T05:59:48.072Z,4.90
2023-02-25T06:00:48.035Z,5.00
2023-02-25T06:01:48.059Z,4.50
2023-02-25T06:02:48.048Z,4.90
2023-02-25T06:03:48.003Z,5.20
2023-02-25T06:04:48.001Z,5.20
2023-02-25T06:05:48.177Z,5.30
2023-02-25T06:06:47.948Z,4.60
2023-02-25T06:07:47.943Z,4.90
2023-02-25T06:08:47.938Z,5.30
2023-02-25T06:09:47.942Z,5.40
2023-02-25T06:10:47.924Z,4.90
2023-02-25T06:11:47.931Z,4.80
2023-02-25T06:12:47.901Z,5.10
2023-02-25T06:13:47.909Z,4.80
2023-02-25T06:14:47.862Z,4.80
2023-02-25T06:15:47.894Z,4.80
2023-02-25T06:16:47.892Z,5.30
2023-02-25T06:17:47.865Z,4.40
2023-02-25T06:18:47.886Z,4.50
2023-02-25T06:19:47.809Z,4.70
2023-02-25T06:20:47.796Z,4.80
2023-02-25T06:21:47.785Z,5.30
2023-02-25T06:22:47.768Z,5.10
2023-02-25T06:23:47.794Z,5.20
2023-02-25T06:24:47.749Z,4.90
2023-02-25T06:25:47.746Z,4.90
2023-02-25T06:26:47.725Z,5.50
2023-02-25T06:27:47.760Z,4.80
2023-02-25T06:28:47.714Z,5.00
2023-02-25T06:29:47.734Z,4.90
2023-02-25T06:30:47.754Z,5.00
2023-02-25T06:31:47.830Z,5.50
2023-02-25T06:32:47.724Z,5.40
2023-02-25T06:33:47.658Z,5.20
2023-02-25T06:34:47.637Z,4.70
2023-02-25T06:35:47.664Z,4.90
2023-02-25T06:36:47.614Z,4.60
2023-02-25T06:37:47.650Z,4.80
2023-02-25T06:38:47.591Z,5.40
2023-02-25T06:39:47.594Z,5.30
2023-02-25T06:40:47.569Z,4.50
2023-02-25T06:41:47.620Z,5.20
2023-02-25T06:42:47.553Z,5.10
2023-02-25T06:43:47.550Z,4.80
2023-02-25T06:44:47.521Z,4.80
2023-02-25T06:45:47.549Z,4.40
2023-02-25T06:46:47.506Z,4.30
2023-02-25T06:47:47.543Z,4.30
2023-02-25T06:48:47.482Z,5.00
2023-02-25T06:49:47.476Z,3.40
2023-02-25T06:50:47.461Z,1.70
2023-02-25T06:51:47.451Z,1.90
2023-02-25T06:52:47.433Z,1.70
2023-02-25T06:53:47.462Z,1.40
2023-02-25T06:54:47.447Z,1.80
2023-02-25T06:55:47.418Z,1.30
2023-02-25T06:56:47.418Z,1.70
2023-02-25T06:57:47.383Z,1.50
2023-02-25T06:58:47.377Z,1.20
2023-02-25T06:59:47.401Z,1.00
2023-02-25T07:00:47.342Z,1.40
2023-02-25T07:01:47.350Z,1.70
2023-02-25T07:02:47.324Z,1.70
2023-02-25T07:03:47.314Z,1.50
2023-02-25T07:04:47.338Z,1.00
2023-02-25T07:05:47.329Z,1.30
2023-02-25T07:06:47.278Z,1.40
2023-02-25T07:07:47.272Z,1.20
2023-02-25T07:08:47.274Z,1.40
2023-02-25T07:09:47.245Z,1.20
2023-02-25T07:10:47.234Z,1.50
2023-02-25T07:11:47.255Z,1.10
2023-02-25T07:12:47.213Z,1.40
2023-02-25T07:13:47.206Z,1.80
2023-02-25T07:14:47.186Z,1.30
2023-02-25T07:15:47.213Z,1.10
2023-02-25T07:16:47.167Z,1.30
2023-02-25T07:17:47.185Z,1.10
2023-02-25T07:18:47.142Z,1.60
2023-02-25T07:19:47.158Z,1.20
2023-02-25T07:20:47.115Z,1.40
2023-02-25T07:21:47.112Z,1.20
2023-02-25T07:22:47.098Z,1.70
2023-02-25T07:23:47.141Z,1.30
2023-02-25T07:24:47.110Z,1.30
2023-02-25T07:25:47.068Z,1.00
2023-02-25T07:26:47.050Z,1.10
2023-02-25T07:27:47.056Z,1.10
2023-02-25T07:28:47.092Z,1.30
2023-02-25T07:29:47.080Z,1.20
2023-02-25T07:30:47.208Z,1.30
2023-02-25T07:31:47.273Z,1.00
2023-02-25T07:32:47.108Z,1.10
2023-02-25T07:33:46.979Z,1.30
2023-02-25T07:34:46.990Z,1.20
2023-02-25T07:35:46.954Z,1.20
2023-02-25T07:36:46.940Z,1.20
2023-02-25T07:37:46.935Z,1.30
2023-02-25T07:38:46.925Z,1.30
2023-02-25T07:39:47.775Z,1.30
2023-02-25T07:40:46.941Z,1.30
2023-02-25T07:41:46.889Z,1.40
2023-02-25T07:42:46.878Z,1.30
2023-02-25T07:43:46.878Z,1.30
2023-02-25T07:44:46.858Z,1.30
2023-02-25T07:45:46.873Z,1.30
2023-02-25T07:46:46.866Z,1.50
2023-02-25T07:47:46.828Z,1.80
2023-02-25T07:48:46.811Z,1.60
2023-02-25T07:49:46.809Z,2.10
2023-02-25T07:50:46.834Z,1.70
2023-02-25T07:51:46.783Z,2.00
2023-02-25T07:52:46.802Z,2.40
2023-02-25T07:53:46.759Z,2.30
2023-02-25T07:54:46.748Z,2.60
2023-02-25T07:55:46.745Z,3.10
2023-02-25T07:56:46.755Z,2.60
2023-02-25T07:57:46.730Z,3.20
2023-02-25T07:58:46.724Z,3.10
2023-02-25T07:59:46.699Z,3.70
2023-02-25T08:00:46.677Z,3.30
2023-02-25T08:01:46.695Z,3.50
2023-02-25T08:02:46.704Z,4.00
2023-02-25T08:03:46.653Z,3.60
2023-02-25T08:04:46.709Z,3.00
2023-02-25T08:05:46.633Z,2.90
2023-02-25T08:06:46.619Z,3.40
2023-02-25T08:07:46.601Z,3.00
2023-02-25T08:08:46.626Z,2.80
2023-02-25T08:09:46.639Z,2.90
2023-02-25T08:10:46.588Z,3.10
2023-02-25T08:11:46.573Z,3.50
2023-02-25T08:12:46.549Z,2.70
2023-02-25T08:13:46.536Z,2.90
2023-02-25T08:14:46.527Z,3.10
2023-02-25T08:15:46.630Z,2.50
2023-02-25T08:16:46.532Z,2.90
2023-02-25T08:17:46.489Z,2.60
2023-02-25T08:18:46.480Z,2.30
2023-02-25T08:19:46.470Z,2.70
2023-02-25T08:20:46.450Z,2.40
2023-02-25T08:21:46.453Z,2.50
2023-02-25T08:22:46.469Z,2.20
2023-02-25T08:23:46.435Z,2.80
2023-02-25T08:24:46.407Z,2.50
2023-02-25T08:25:46.473Z,2.40
2023-02-25T08:26:46.389Z,2.20
2023-02-25T08:27:46.377Z,2.00
2023-02-25T08:28:46.393Z,2.50
2023-02-25T08:29:46.359Z,1.90
2023-02-25T08:30:46.419Z,2.30
2023-02-25T08:31:46.540Z,2.20
2023-02-25T08:32:46.476Z,1.80
2023-02-25T08:33:46.324Z,2.10
2023-02-25T08:34:48.753Z,2.30
2023-02-25T08:35:46.290Z,2.40
2023-02-25T08:36:46.285Z,2.10
2023-02-25T08:37:46.269Z,2.40
2023-02-25T08:38:46.248Z,2.50
2023-02-25T08:39:46.255Z,2.30
2023-02-25T08:40:46.287Z,2.30
2023-02-25T08:41:46.222Z,2.30
2023-02-25T08:42:46.213Z,2.00
2023-02-25T08:43:46.196Z,2.40
2023-02-25T08:44:46.181Z,1.80
2023-02-25T08:45:46.171Z,2.20
2023-02-25T08:46:46.240Z,2.30
2023-02-25T08:47:46.154Z,2.00
2023-02-25T08:48:46.136Z,2.30
2023-02-25T08:49:46.127Z,2.10
2023-02-25T08:50:46.117Z,2.30
2023-02-25T08:51:46.138Z,2.20
2023-02-25T08:52:46.086Z,2.40
2023-02-25T08:53:46.080Z,2.10
2023-02-25T08:54:46.066Z,2.00
2023-02-25T08:55:46.060Z,2.50
2023-02-25T08:56:46.048Z,2.10
2023-02-25T08:57:46.067Z,2.20
2023-02-25T08:58:46.017Z,2.00
2023-02-25T08:59:46.016Z,2.60
2023-02-25T09:00:46.019Z,2.20
2023-02-25T09:01:46.035Z,2.00
2023-02-25T09:02:45.976Z,2.00
2023-02-25T09:03:45.996Z,2.00
2023-02-25T09:04:45.975Z,2.30
2023-02-25T09:05:45.947Z,2.30
2023-02-25T09:06:45.932Z,2.30
2023-02-25T09:07:45.952Z,1.80
2023-02-25T09:08:45.899Z,2.20
2023-02-25T09:09:45.996Z,2.10
2023-02-25T09:10:50.461Z,1.90
2023-02-25T09:11:45.873Z,2.40
2023-02-25T09:12:45.881Z,2.10
2023-02-25T09:13:45.848Z,2.30
2023-02-25T09:14:45.840Z,2.10
2023-02-25T09:15:45.845Z,1.90
2023-02-25T09:16:45.938Z,1.80
2023-02-25T09:17:45.800Z,1.70
2023-02-25T09:18:45.810Z,1.60
2023-02-25T09:19:45.776Z,1.80
2023-02-25T09:20:45.772Z,1.60
2023-02-25T09:21:45.773Z,1.80
2023-02-25T09:22:45.750Z,2.00
2023-02-25T09:23:45.733Z,1.90
2023-02-25T09:24:45.760Z,2.00
2023-02-25T09:25:45.726Z,1.70
2023-02-25T09:26:45.722Z,1.60
2023-02-25T09:27:45.714Z,1.80
2023-02-25T09:28:45.684Z,1.90
2023-02-25T09:29:45.665Z,2.40
2023-02-25T09:30:45.780Z,1.80
2023-02-25T09:31:45.853Z,2.00
2023-02-25T09:32:45.832Z,1.70
2023-02-25T09:33:45.838Z,2.00
2023-02-25T09:34:45.619Z,2.50
2023-02-25T09:35:45.613Z,2.40
2023-02-25T09:36:45.592Z,2.00
2023-02-25T09:37:45.582Z,2.00
2023-02-25T09:38:45.580Z,2.00
2023-02-25T09:39:45.588Z,1.70
2023-02-25T09:40:45.546Z,1.70
2023-02-25T09:41:45.526Z,1.70
2023-02-25T09:42:45.526Z,1.90
2023-02-25T09:43:45.510Z,1.60
2023-02-25T09:44:45.499Z,1.70
2023-02-25T09:45:45.587Z,1.50
2023-02-25T09:46:45.483Z,1.60
2023-02-25T09:47:45.540Z,1.60
2023-02-25T09:48:46.345Z,1.70
2023-02-25T09:49:45.435Z,1.90
2023-02-25T09:50:45.434Z,1.60
2023-02-25T09:51:45.439Z,1.60
2023-02-25T09:52:45.417Z,1.80
2023-02-25T09:53:45.391Z,1.80
2023-02-25T09:54:45.389Z,1.80
2023-02-25T09:55:45.377Z,1.80
2023-02-25T09:56:45.387Z,1.90
2023-02-25T09:57:45.360Z,1.90
2023-02-25T09:58:45.345Z,1.70
2023-02-25T09:59:45.330Z,1.80
2023-02-25T10:00:45.333Z,1.80
2023-02-25T10:01:45.312Z,2.20
2023-02-25T10:02:45.445Z,1.90
2023-02-25T10:03:45.283Z,2.10
2023-02-25T10:04:45.286Z,1.70
2023-02-25T10:05:45.286Z,1.80
2023-02-25T10:06:45.256Z,2.00
2023-02-25T10:07:45.282Z,1.80
2023-02-25T10:08:45.239Z,2.30
2023-02-25T10:09:45.225Z,1.70
2023-02-25T10:10:45.210Z,1.90
2023-02-25T10:11:45.196Z,1.90
2023-02-25T10:12:45.221Z,2.00
2023-02-25T10:13:45.173Z,2.00
2023-02-25T10:14:45.176Z,1.70
2023-02-25T10:15:52.228Z,1.80
2023-02-25T10:16:45.191Z,2.40
2023-02-25T10:17:45.134Z,1.70
2023-02-25T10:18:45.146Z,1.90
2023-02-25T10:19:45.121Z,1.90
2023-02-25T10:20:45.104Z,1.80
2023-02-25T10:21:45.086Z,1.70
2023-02-25T10:22:45.090Z,1.90
2023-02-25T10:23:45.100Z,1.80
2023-02-25T10:24:45.066Z,2.10
2023-02-25T10:25:45.046Z,2.00
2023-02-25T10:26:45.035Z,1.70
2023-02-25T10:27:45.166Z,1.80
2023-02-25T10:28:45.011Z,1.70
2023-02-25T10:29:45.017Z,1.70
2023-02-25T10:30:45.102Z,1.90
2023-02-25T10:31:45.196Z,1.70
2023-02-25T10:32:45.047Z,1.80
2023-02-25T10:33:44.950Z,1.70
2023-02-25T10:34:45.241Z,1.70
2023-02-25T10:35:44.942Z,2.00
2023-02-25T10:36:44.925Z,1.50
2023-02-25T10:37:44.906Z,1.90
2023-02-25T10:38:44.896Z,1.70
2023-02-25T10:39:44.891Z,1.70
2023-02-25T10:40:45.120Z,1.60
2023-02-25T10:41:44.864Z,1.70
2023-02-25T10:42:44.868Z,1.90
2023-02-25T10:43:44.846Z,1.70
2023-02-25T10:44:44.842Z,1.60
2023-02-25T10:45:44.867Z,1.60
2023-02-25T10:46:44.832Z,1.90
2023-02-25T10:47:44.828Z,1.70
2023-02-25T10:48:44.804Z,1.80
2023-02-25T10:49:44.777Z,1.60
2023-02-25T10:50:46.400Z,1.70
2023-02-25T10:51:44.779Z,2.00
2023-02-25T10:52:44.742Z,1.90
2023-02-25T10:53:44.734Z,1.70
2023-02-25T10:54:44.734Z,2.00
2023-02-25T10:55:44.710Z,1.60
2023-02-25T10:56:44.703Z,1.50
2023-02-25T10:57:44.729Z,1.90
2023-02-25T10:58:44.688Z,1.80
2023-02-25T10:59:44.666Z,1.60
2023-02-25T11:00:44.656Z,1.80
2023-02-25T11:01:44.808Z,1.70
2023-02-25T11:02:44.769Z,1.90
2023-02-25T11:03:44.610Z,1.80
2023-02-25T11:04:44.602Z,1.50
2023-02-25T11:05:44.588Z,1.90
2023-02-25T11:06:44.589Z,1.80
2023-02-25T11:07:44.597Z,1.90
2023-02-25T11:08:44.661Z,1.80
2023-02-25T11:09:44.608Z,2.20
2023-02-25T11:10:44.548Z,1.50
2023-02-25T11:11:44.550Z,1.60
2023-02-25T11:12:44.572Z,1.80
2023-02-25T11:13:44.529Z,2.00
2023-02-25T11:14:44.501Z,2.10
2023-02-25T11:15:46.386Z,1.80
2023-02-25T11:16:44.482Z,1.70
2023-02-25T11:17:44.460Z,1.40
2023-02-25T11:18:44.471Z,1.70
2023-02-25T11:19:44.434Z,1.60
2023-02-25T11:20:44.426Z,1.80
2023-02-25T11:21:44.410Z,1.80
2023-02-25T11:22:44.412Z,1.80
2023-02-25T11:23:44.419Z,2.20
2023-02-25T11:24:44.397Z,2.00
2023-02-25T11:25:44.367Z,1.80
2023-02-25T11:26:44.365Z,1.60
2023-02-25T11:27:44.344Z,1.50
2023-02-25T11:28:44.360Z,1.50
2023-02-25T11:29:44.359Z,1.80
2023-02-25T11:30:44.377Z,1.60
2023-02-25T11:31:44.549Z,1.80
2023-02-25T11:32:44.436Z,1.70
2023-02-25T11:33:44.308Z,1.60
2023-02-25T11:34:44.312Z,1.60
2023-02-25T11:35:44.287Z,1.60
2023-02-25T11:36:44.241Z,1.60
2023-02-25T11:37:45.533Z,1.40
2023-02-25T11:38:44.261Z,1.60
2023-02-25T11:39:44.435Z,1.60
2023-02-25T11:40:44.307Z,1.40
2023-02-25T11:41:44.188Z,1.30
2023-02-25T11:42:44.232Z,1.30
2023-02-25T11:43:44.179Z,1.00
2023-02-25T11:44:44.187Z,1.30
2023-02-25T11:45:44.135Z,1.20
2023-02-25T11:46:44.158Z,1.30
2023-02-25T11:47:44.121Z,1.30
2023-02-25T11:48:44.134Z,1.50
2023-02-25T11:49:44.118Z,1.50
2023-02-25T11:50:44.105Z,0.90
2023-02-25T11:51:44.121Z,0.90
2023-02-25T11:52:44.092Z,1.00
2023-02-25T11:53:44.097Z,1.00
2023-02-25T11:54:44.056Z,1.20
2023-02-25T11:55:44.024Z,1.10
2023-02-25T11:56:44.062Z,1.00
2023-02-25T11:57:44.002Z,1.20
2023-02-25T11:58:44.001Z,1.00
2023-02-25T11:59:44.005Z,1.00
2023-02-25T12:00:43.983Z,0.90
2023-02-25T12:01:43.958Z,1.20
2023-02-25T12:02:44.060Z,1.00
2023-02-25T12:03:43.932Z,1.20
2023-02-25T12:04:43.972Z,1.00
2023-02-25T12:05:43.924Z,1.00
2023-02-25T12:06:43.902Z,0.90
2023-02-25T12:07:55.469Z,1.20
2023-02-25T12:08:43.905Z,1.20
2023-02-25T12:09:43.877Z,1.00
2023-02-25T12:10:43.889Z,1.10
2023-02-25T12:11:43.839Z,1.10
2023-02-25T12:12:43.845Z,1.30
2023-02-25T12:13:43.850Z,1.00
2023-02-25T12:14:43.835Z,1.00
2023-02-25T12:15:43.810Z,0.80
2023-02-25T12:16:44.610Z,1.10
2023-02-25T12:17:43.775Z,1.00
2023-02-25T12:18:43.765Z,0.90
2023-02-25T12:19:43.777Z,1.00
2023-02-25T12:20:43.774Z,1.10
2023-02-25T12:21:43.812Z,1.10
2023-02-25T12:22:43.802Z,1.10
2023-02-25T12:23:43.712Z,1.00
2023-02-25T12:24:43.708Z,1.00
2023-02-25T12:25:43.698Z,1.30
2023-02-25T12:26:43.712Z,0.80
2023-02-25T12:27:43.672Z,0.80
2023-02-25T12:28:43.677Z,1.10
2023-02-25T12:29:43.650Z,0.80
2023-02-25T12:30:43.643Z,0.80
2023-02-25T12:31:43.731Z,0.70
2023-02-25T12:32:43.625Z,0.80
2023-02-25T12:33:43.596Z,1.00
2023-02-25T12:34:43.657Z,0.70
2023-02-25T12:35:43.571Z,1.20
2023-02-25T12:36:43.570Z,0.90
2023-02-25T12:37:43.574Z,0.80
2023-02-25T12:38:43.555Z,1.10
2023-02-25T12:39:43.536Z,1.10
2023-02-25T12:40:43.579Z,0.90
2023-02-25T12:41:43.506Z,1.00
2023-02-25T12:42:43.526Z,0.70
2023-02-25T12:43:43.474Z,1.20
2023-02-25T12:44:43.469Z,0.80
2023-02-25T12:45:43.492Z,1.00
2023-02-25T12:46:43.455Z,1.10
2023-02-25T12:47:43.475Z,0.90
2023-02-25T12:48:43.462Z,0.80
2023-02-25T12:49:43.411Z,1.00
2023-02-25T12:50:43.409Z,1.00
2023-02-25T12:51:43.426Z,1.00
2023-02-25T12:52:43.431Z,1.10
2023-02-25T12:53:43.420Z,0.90
2023-02-25T12:54:43.392Z,1.10
2023-02-25T12:55:43.344Z,0.80
2023-02-25T12:56:43.343Z,1.10
2023-02-25T12:57:43.405Z,1.20
2023-02-25T12:58:43.342Z,1.00
2023-02-25T12:59:43.320Z,0.90
2023-02-25T13:00:43.357Z,0.90
2023-02-25T13:01:43.280Z,1.00
2023-02-25T13:02:43.302Z,1.00
2023-02-25T13:03:43.347Z,1.20
2023-02-25T13:04:43.250Z,1.30
2023-02-25T13:05:43.255Z,1.30
2023-02-25T13:06:43.221Z,1.10
2023-02-25T13:07:43.200Z,1.10
2023-02-25T13:08:43.200Z,1.00
2023-02-25T13:09:43.211Z,1.20
2023-02-25T13:10:43.174Z,1.30
2023-02-25T13:12:10.201Z,1.20
2023-02-25T13:12:43.158Z,1.10
2023-02-25T13:13:43.139Z,1.30
2023-02-25T13:14:43.153Z,1.30
2023-02-25T13:15:43.118Z,1.10
2023-02-25T13:16:43.138Z,1.20
2023-02-25T13:17:43.134Z,1.20
2023-02-25T13:18:43.087Z,1.10